sensor_id;sensor_type;location;lat;lon;timestamp;temperature;humidity
74661;SHT31;63191;39.566;2.654;2022-12-18T00:00:27;12.73;79.40
74661;SHT31;63191;39.566;2.654;2022-12-18T00:02:53;12.72;79.47
74661;SHT31;63191;39.566;2.654;2022-12-18T00:05:27;12.70;79.50
74661;SHT31;63191;39.566;2.654;2022-12-18T00:07:54;12.70;79.54
74661;SHT31;63191;39.566;2.654;2022-12-18T00:10:23;12.72;79.50
74661;SHT31;63191;39.566;2.654;2022-12-18T00:12:53;12.74;79.46
74661;SHT31;63191;39.566;2.654;2022-12-18T00:15:23;12.74;79.47
74661;SHT31;63191;39.566;2.654;2022-12-18T00:18:08;12.74;79.50
74661;SHT31;63191;39.566;2.654;2022-12-18T00:20:38;12.73;79.55
74661;SHT31;63191;39.566;2.654;2022-12-18T00:23:07;12.72;79.62
74661;SHT31;63191;39.566;2.654;2022-12-18T00:25:34;12.72;79.74
74661;SHT31;63191;39.566;2.654;2022-12-18T00:28:02;12.71;79.85
74661;SHT31;63191;39.566;2.654;2022-12-18T00:30:30;12.71;79.95
74661;SHT31;63191;39.566;2.654;2022-12-18T00:32:55;12.71;80.00
74661;SHT31;63191;39.566;2.654;2022-12-18T00:35:22;12.68;80.00
74661;SHT31;63191;39.566;2.654;2022-12-18T00:37:48;12.65;80.04
74661;SHT31;63191;39.566;2.654;2022-12-18T00:40:14;12.60;80.10
74661;SHT31;63191;39.566;2.654;2022-12-18T00:42:41;12.59;80.23
74661;SHT31;63191;39.566;2.654;2022-12-18T00:45:27;12.61;80.38
74661;SHT31;63191;39.566;2.654;2022-12-18T00:47:56;12.62;80.54
74661;SHT31;63191;39.566;2.654;2022-12-18T00:50:23;12.64;80.65
74661;SHT31;63191;39.566;2.654;2022-12-18T00:52:50;12.64;80.67
74661;SHT31;63191;39.566;2.654;2022-12-18T00:55:17;12.65;80.60
74661;SHT31;63191;39.566;2.654;2022-12-18T00:57:43;12.68;80.67
74661;SHT31;63191;39.566;2.654;2022-12-18T01:00:11;12.72;80.69
74661;SHT31;63191;39.566;2.654;2022-12-18T01:02:39;12.74;80.73
74661;SHT31;63191;39.566;2.654;2022-12-18T01:05:06;12.76;80.79
74661;SHT31;63191;39.566;2.654;2022-12-18T01:07:34;12.77;80.80
74661;SHT31;63191;39.566;2.654;2022-12-18T01:10:00;12.79;80.87
74661;SHT31;63191;39.566;2.654;2022-12-18T01:12:25;12.81;80.80
74661;SHT31;63191;39.566;2.654;2022-12-18T01:14:51;12.85;80.73
74661;SHT31;63191;39.566;2.654;2022-12-18T01:17:17;12.85;80.65
74661;SHT31;63191;39.566;2.654;2022-12-18T01:19:43;12.88;80.60
74661;SHT31;63191;39.566;2.654;2022-12-18T01:22:08;12.87;80.59
74661;SHT31;63191;39.566;2.654;2022-12-18T01:24:34;12.86;80.53
74661;SHT31;63191;39.566;2.654;2022-12-18T01:27:00;12.85;80.51
74661;SHT31;63191;39.566;2.654;2022-12-18T01:29:25;12.86;80.50
74661;SHT31;63191;39.566;2.654;2022-12-18T01:31:54;12.88;80.51
74661;SHT31;63191;39.566;2.654;2022-12-18T01:34:21;12.89;80.50
74661;SHT31;63191;39.566;2.654;2022-12-18T01:36:48;12.91;80.49
74661;SHT31;63191;39.566;2.654;2022-12-18T01:39:17;12.91;80.48
74661;SHT31;63191;39.566;2.654;2022-12-18T01:41:44;12.90;80.48
74661;SHT31;63191;39.566;2.654;2022-12-18T01:47:45;12.88;80.50
74661;SHT31;63191;39.566;2.654;2022-12-18T01:53:06;12.86;80.40
74661;SHT31;63191;39.566;2.654;2022-12-18T01:55:37;12.85;80.32
74661;SHT31;63191;39.566;2.654;2022-12-18T01:58:14;12.87;80.29
74661;SHT31;63191;39.566;2.654;2022-12-18T02:00:41;12.86;80.24
74661;SHT31;63191;39.566;2.654;2022-12-18T02:03:07;12.85;80.21
74661;SHT31;63191;39.566;2.654;2022-12-18T02:05:40;12.84;80.20
74661;SHT31;63191;39.566;2.654;2022-12-18T02:08:30;12.82;80.20
74661;SHT31;63191;39.566;2.654;2022-12-18T02:11:36;12.80;80.20
74661;SHT31;63191;39.566;2.654;2022-12-18T02:14:23;12.77;80.20
74661;SHT31;63191;39.566;2.654;2022-12-18T02:28:20;12.69;80.02
74661;SHT31;63191;39.566;2.654;2022-12-18T02:30:51;12.64;80.00
74661;SHT31;63191;39.566;2.654;2022-12-18T02:33:21;12.59;80.09
74661;SHT31;63191;39.566;2.654;2022-12-18T02:35:50;12.53;80.15
74661;SHT31;63191;39.566;2.654;2022-12-18T02:38:19;12.50;80.26
74661;SHT31;63191;39.566;2.654;2022-12-18T02:40:45;12.47;80.30
74661;SHT31;63191;39.566;2.654;2022-12-18T02:43:13;12.46;80.30
74661;SHT31;63191;39.566;2.654;2022-12-18T02:45:48;12.45;80.29
74661;SHT31;63191;39.566;2.654;2022-12-18T02:48:17;12.43;80.30
74661;SHT31;63191;39.566;2.654;2022-12-18T02:50:52;12.40;80.34
74661;SHT31;63191;39.566;2.654;2022-12-18T02:54:06;12.36;80.42
74661;SHT31;63191;39.566;2.654;2022-12-18T02:56:57;12.34;80.50
74661;SHT31;63191;39.566;2.654;2022-12-18T02:59:52;12.31;80.51
74661;SHT31;63191;39.566;2.654;2022-12-18T03:02:57;12.28;80.50
74661;SHT31;63191;39.566;2.654;2022-12-18T03:05:37;12.28;80.53
74661;SHT31;63191;39.566;2.654;2022-12-18T03:08:16;12.28;80.54
74661;SHT31;63191;39.566;2.654;2022-12-18T03:10:49;12.29;80.59
74661;SHT31;63191;39.566;2.654;2022-12-18T03:13:28;12.29;80.61
74661;SHT31;63191;39.566;2.654;2022-12-18T03:16:02;12.27;80.70
74661;SHT31;63191;39.566;2.654;2022-12-18T03:21:33;12.19;80.80
74661;SHT31;63191;39.566;2.654;2022-12-18T03:24:08;12.15;80.86
74661;SHT31;63191;39.566;2.654;2022-12-18T03:26:36;12.09;80.89
74661;SHT31;63191;39.566;2.654;2022-12-18T03:29:07;12.07;80.90
74661;SHT31;63191;39.566;2.654;2022-12-18T03:31:45;12.05;80.92
74661;SHT31;63191;39.566;2.654;2022-12-18T03:34:23;12.05;81.00
74661;SHT31;63191;39.566;2.654;2022-12-18T03:36:55;12.04;81.05
74661;SHT31;63191;39.566;2.654;2022-12-18T03:39:21;12.02;81.12
74661;SHT31;63191;39.566;2.654;2022-12-18T03:42:02;12.01;81.20
74661;SHT31;63191;39.566;2.654;2022-12-18T03:44:39;11.97;81.30
74661;SHT31;63191;39.566;2.654;2022-12-18T03:47:24;11.95;81.36
74661;SHT31;63191;39.566;2.654;2022-12-18T03:50:17;11.92;81.44
74661;SHT31;63191;39.566;2.654;2022-12-18T03:55:45;11.93;81.42
74661;SHT31;63191;39.566;2.654;2022-12-18T03:58:13;11.94;81.40
74661;SHT31;63191;39.566;2.654;2022-12-18T04:00:48;11.93;81.36
74661;SHT31;63191;39.566;2.654;2022-12-18T04:03:17;11.92;81.39
74661;SHT31;63191;39.566;2.654;2022-12-18T04:05:45;11.90;81.40
74661;SHT31;63191;39.566;2.654;2022-12-18T04:08:16;11.88;81.49
74661;SHT31;63191;39.566;2.654;2022-12-18T04:10:44;11.86;81.50
74661;SHT31;63191;39.566;2.654;2022-12-18T04:13:10;11.82;81.51
74661;SHT31;63191;39.566;2.654;2022-12-18T04:15:36;11.81;81.50
74661;SHT31;63191;39.566;2.654;2022-12-18T04:18:03;11.81;81.48
74661;SHT31;63191;39.566;2.654;2022-12-18T04:20:30;11.81;81.49
74661;SHT31;63191;39.566;2.654;2022-12-18T04:22:57;11.81;81.58
74661;SHT31;63191;39.566;2.654;2022-12-18T04:25:25;11.80;81.60
74661;SHT31;63191;39.566;2.654;2022-12-18T04:27:51;11.78;81.63
74661;SHT31;63191;39.566;2.654;2022-12-18T04:30:18;11.76;81.63
74661;SHT31;63191;39.566;2.654;2022-12-18T04:32:44;11.73;81.69
74661;SHT31;63191;39.566;2.654;2022-12-18T04:35:10;11.72;81.70
74661;SHT31;63191;39.566;2.654;2022-12-18T04:37:37;11.72;81.69
74661;SHT31;63191;39.566;2.654;2022-12-18T04:40:03;11.75;81.63
74661;SHT31;63191;39.566;2.654;2022-12-18T04:42:36;11.77;81.57
74661;SHT31;63191;39.566;2.654;2022-12-18T04:45:05;11.78;81.50
74661;SHT31;63191;39.566;2.654;2022-12-18T04:47:33;11.78;81.50
74661;SHT31;63191;39.566;2.654;2022-12-18T04:50:07;11.77;81.50
74661;SHT31;63191;39.566;2.654;2022-12-18T04:53:02;11.76;81.53
74661;SHT31;63191;39.566;2.654;2022-12-18T04:55:31;11.77;81.52
74661;SHT31;63191;39.566;2.654;2022-12-18T04:58:35;11.76;81.50
74661;SHT31;63191;39.566;2.654;2022-12-18T05:01:07;11.78;81.38
74661;SHT31;63191;39.566;2.654;2022-12-18T05:04:15;11.80;81.29
74661;SHT31;63191;39.566;2.654;2022-12-18T05:07:01;11.81;81.19
74661;SHT31;63191;39.566;2.654;2022-12-18T05:09:45;11.81;81.16
74661;SHT31;63191;39.566;2.654;2022-12-18T05:12:12;11.79;81.12
74661;SHT31;63191;39.566;2.654;2022-12-18T05:14:38;11.76;81.13
74661;SHT31;63191;39.566;2.654;2022-12-18T05:17:03;11.73;81.16
74661;SHT31;63191;39.566;2.654;2022-12-18T05:19:31;11.70;81.18
74661;SHT31;63191;39.566;2.654;2022-12-18T05:21:56;11.65;81.16
74661;SHT31;63191;39.566;2.654;2022-12-18T05:24:23;11.63;81.13
74661;SHT31;63191;39.566;2.654;2022-12-18T05:26:49;11.63;81.10
74661;SHT31;63191;39.566;2.654;2022-12-18T05:29:15;11.61;81.10
74661;SHT31;63191;39.566;2.654;2022-12-18T05:31:41;11.59;81.10
74661;SHT31;63191;39.566;2.654;2022-12-18T05:34:06;11.57;81.11
74661;SHT31;63191;39.566;2.654;2022-12-18T05:36:32;11.55;81.12
74661;SHT31;63191;39.566;2.654;2022-12-18T05:38:58;11.51;81.18
74661;SHT31;63191;39.566;2.654;2022-12-18T05:41:25;11.48;81.20
74661;SHT31;63191;39.566;2.654;2022-12-18T05:43:51;11.44;81.21
74661;SHT31;63191;39.566;2.654;2022-12-18T05:46:17;11.40;81.29
74661;SHT31;63191;39.566;2.654;2022-12-18T05:48:44;11.39;81.30
74661;SHT31;63191;39.566;2.654;2022-12-18T05:51:11;11.40;81.30
74661;SHT31;63191;39.566;2.654;2022-12-18T05:53:40;11.43;81.38
74661;SHT31;63191;39.566;2.654;2022-12-18T05:56:09;11.44;81.39
74661;SHT31;63191;39.566;2.654;2022-12-18T05:58:38;11.44;81.40
74661;SHT31;63191;39.566;2.654;2022-12-18T06:01:15;11.43;81.40
74661;SHT31;63191;39.566;2.654;2022-12-18T06:03:44;11.43;81.40
74661;SHT31;63191;39.566;2.654;2022-12-18T06:06:20;11.41;81.43
74661;SHT31;63191;39.566;2.654;2022-12-18T06:08:49;11.40;81.43
74661;SHT31;63191;39.566;2.654;2022-12-18T06:11:18;11.41;81.42
74661;SHT31;63191;39.566;2.654;2022-12-18T06:13:46;11.44;81.41
74661;SHT31;63191;39.566;2.654;2022-12-18T06:16:16;11.46;81.38
74661;SHT31;63191;39.566;2.654;2022-12-18T06:18:42;11.48;81.30
74661;SHT31;63191;39.566;2.654;2022-12-18T06:21:08;11.49;81.26
74661;SHT31;63191;39.566;2.654;2022-12-18T06:23:34;11.48;81.20
74661;SHT31;63191;39.566;2.654;2022-12-18T06:26:18;11.47;81.20
74661;SHT31;63191;39.566;2.654;2022-12-18T06:28:44;11.46;81.13
74661;SHT31;63191;39.566;2.654;2022-12-18T06:31:10;11.43;81.10
74661;SHT31;63191;39.566;2.654;2022-12-18T06:33:36;11.42;81.10
74661;SHT31;63191;39.566;2.654;2022-12-18T06:36:04;11.43;81.08
74661;SHT31;63191;39.566;2.654;2022-12-18T06:38:37;11.45;81.04
74661;SHT31;63191;39.566;2.654;2022-12-18T06:41:13;11.47;81.02
74661;SHT31;63191;39.566;2.654;2022-12-18T06:43:47;11.48;81.01
74661;SHT31;63191;39.566;2.654;2022-12-18T06:46:13;11.50;81.01
74661;SHT31;63191;39.566;2.654;2022-12-18T06:48:49;11.49;81.00
74661;SHT31;63191;39.566;2.654;2022-12-18T06:51:19;11.49;80.96
74661;SHT31;63191;39.566;2.654;2022-12-18T06:53:46;11.47;80.95
74661;SHT31;63191;39.566;2.654;2022-12-18T06:56:12;11.48;80.90
74661;SHT31;63191;39.566;2.654;2022-12-18T06:58:39;11.49;80.85
74661;SHT31;63191;39.566;2.654;2022-12-18T07:01:08;11.52;80.77
74661;SHT31;63191;39.566;2.654;2022-12-18T07:03:40;11.55;80.67
74661;SHT31;63191;39.566;2.654;2022-12-18T07:06:12;11.56;80.59
74661;SHT31;63191;39.566;2.654;2022-12-18T07:08:52;11.59;80.49
74661;SHT31;63191;39.566;2.654;2022-12-18T07:11:19;11.61;80.41
74661;SHT31;63191;39.566;2.654;2022-12-18T07:13:45;11.64;80.36
74661;SHT31;63191;39.566;2.654;2022-12-18T07:16:16;11.70;80.30
74661;SHT31;63191;39.566;2.654;2022-12-18T07:18:44;11.78;80.25
74661;SHT31;63191;39.566;2.654;2022-12-18T07:21:12;11.86;80.16
74661;SHT31;63191;39.566;2.654;2022-12-18T07:23:42;11.98;79.95
74661;SHT31;63191;39.566;2.654;2022-12-18T07:26:11;12.14;79.78
74661;SHT31;63191;39.566;2.654;2022-12-18T07:28:39;12.32;79.59
74661;SHT31;63191;39.566;2.654;2022-12-18T07:31:08;12.54;79.36
74661;SHT31;63191;39.566;2.654;2022-12-18T07:33:37;12.77;79.01
74661;SHT31;63191;39.566;2.654;2022-12-18T07:36:04;13.03;78.52
74661;SHT31;63191;39.566;2.654;2022-12-18T07:38:32;13.29;78.06
74661;SHT31;63191;39.566;2.654;2022-12-18T07:41:03;13.56;77.52
74661;SHT31;63191;39.566;2.654;2022-12-18T07:43:32;13.82;76.98
74661;SHT31;63191;39.566;2.654;2022-12-18T07:45:58;14.15;76.22
74661;SHT31;63191;39.566;2.654;2022-12-18T07:48:24;14.72;75.35
74661;SHT31;63191;39.566;2.654;2022-12-18T07:50:50;15.37;74.97
74661;SHT31;63191;39.566;2.654;2022-12-18T07:53:16;16.10;74.42
74661;SHT31;63191;39.566;2.654;2022-12-18T07:55:42;16.88;73.00
74661;SHT31;63191;39.566;2.654;2022-12-18T07:58:08;17.60;71.10
74661;SHT31;63191;39.566;2.654;2022-12-18T08:00:34;18.27;69.19
74661;SHT31;63191;39.566;2.654;2022-12-18T08:03:00;18.94;67.48
74661;SHT31;63191;39.566;2.654;2022-12-18T08:05:26;19.62;65.87
74661;SHT31;63191;39.566;2.654;2022-12-18T08:07:53;20.27;64.07
74661;SHT31;63191;39.566;2.654;2022-12-18T08:10:19;20.90;62.49
74661;SHT31;63191;39.566;2.654;2022-12-18T08:12:48;21.52;60.82
74661;SHT31;63191;39.566;2.654;2022-12-18T08:15:16;22.07;58.88
74661;SHT31;63191;39.566;2.654;2022-12-18T08:17:42;22.45;56.73
74661;SHT31;63191;39.566;2.654;2022-12-18T08:20:08;22.50;54.84
74661;SHT31;63191;39.566;2.654;2022-12-18T08:22:35;22.45;54.92
74661;SHT31;63191;39.566;2.654;2022-12-18T08:25:04;22.83;55.17
74661;SHT31;63191;39.566;2.654;2022-12-18T08:27:30;23.56;54.10
74661;SHT31;63191;39.566;2.654;2022-12-18T08:29:58;24.32;52.84
74661;SHT31;63191;39.566;2.654;2022-12-18T08:32:26;25.07;51.41
74661;SHT31;63191;39.566;2.654;2022-12-18T08:34:53;25.77;49.93
74661;SHT31;63191;39.566;2.654;2022-12-18T08:37:19;26.45;48.35
74661;SHT31;63191;39.566;2.654;2022-12-18T08:39:46;27.14;46.84
74661;SHT31;63191;39.566;2.654;2022-12-18T08:42:12;27.83;45.56
74661;SHT31;63191;39.566;2.654;2022-12-18T08:44:56;28.53;44.24
74661;SHT31;63191;39.566;2.654;2022-12-18T08:47:22;29.16;43.09
74661;SHT31;63191;39.566;2.654;2022-12-18T08:49:48;29.80;41.90
74661;SHT31;63191;39.566;2.654;2022-12-18T08:52:14;30.38;40.83
74661;SHT31;63191;39.566;2.654;2022-12-18T08:54:55;31.00;40.07
74661;SHT31;63191;39.566;2.654;2022-12-18T08:57:24;31.67;38.68
74661;SHT31;63191;39.566;2.654;2022-12-18T08:59:49;32.26;37.60
74661;SHT31;63191;39.566;2.654;2022-12-18T09:02:15;32.86;36.65
74661;SHT31;63191;39.566;2.654;2022-12-18T09:04:51;33.45;35.69
74661;SHT31;63191;39.566;2.654;2022-12-18T09:07:17;34.00;34.87
74661;SHT31;63191;39.566;2.654;2022-12-18T09:09:43;34.51;34.13
74661;SHT31;63191;39.566;2.654;2022-12-18T09:12:09;35.08;33.38
74661;SHT31;63191;39.566;2.654;2022-12-18T09:14:35;35.59;32.60
74661;SHT31;63191;39.566;2.654;2022-12-18T09:17:01;36.11;32.04
74661;SHT31;63191;39.566;2.654;2022-12-18T09:19:27;36.66;31.25
74661;SHT31;63191;39.566;2.654;2022-12-18T09:21:53;37.17;30.46
74661;SHT31;63191;39.566;2.654;2022-12-18T09:24:19;37.56;29.79
74661;SHT31;63191;39.566;2.654;2022-12-18T09:26:45;37.92;29.17
74661;SHT31;63191;39.566;2.654;2022-12-18T09:29:11;38.34;28.68
74661;SHT31;63191;39.566;2.654;2022-12-18T09:31:37;38.73;28.19
74661;SHT31;63191;39.566;2.654;2022-12-18T09:34:04;39.14;27.81
74661;SHT31;63191;39.566;2.654;2022-12-18T09:36:32;39.53;27.24
74661;SHT31;63191;39.566;2.654;2022-12-18T09:38:58;39.88;26.91
74661;SHT31;63191;39.566;2.654;2022-12-18T09:44:35;40.62;26.21
74661;SHT31;63191;39.566;2.654;2022-12-18T09:47:27;41.03;25.81
74661;SHT31;63191;39.566;2.654;2022-12-18T09:49:57;41.42;25.32
74661;SHT31;63191;39.566;2.654;2022-12-18T09:52:28;41.69;25.03
74661;SHT31;63191;39.566;2.654;2022-12-18T09:55:09;42.04;24.89
74661;SHT31;63191;39.566;2.654;2022-12-18T09:57:48;42.37;24.68
74661;SHT31;63191;39.566;2.654;2022-12-18T10:00:19;42.64;24.50
74661;SHT31;63191;39.566;2.654;2022-12-18T10:02:48;42.95;24.21
74661;SHT31;63191;39.566;2.654;2022-12-18T10:05:25;43.27;23.87
74661;SHT31;63191;39.566;2.654;2022-12-18T10:08:04;43.53;23.60
74661;SHT31;63191;39.566;2.654;2022-12-18T10:10:49;43.82;23.18
74661;SHT31;63191;39.566;2.654;2022-12-18T10:13:26;44.09;22.82
74661;SHT31;63191;39.566;2.654;2022-12-18T10:21:39;44.72;22.24
74661;SHT31;63191;39.566;2.654;2022-12-18T10:24:33;44.86;22.03
74661;SHT31;63191;39.566;2.654;2022-12-18T10:27:43;45.04;21.82
74661;SHT31;63191;39.566;2.654;2022-12-18T10:30:15;45.19;21.73
74661;SHT31;63191;39.566;2.654;2022-12-18T10:32:47;45.39;21.60
74661;SHT31;63191;39.566;2.654;2022-12-18T10:35:23;45.63;21.36
74661;SHT31;63191;39.566;2.654;2022-12-18T10:38:19;45.78;21.09
74661;SHT31;63191;39.566;2.654;2022-12-18T10:46:46;46.29;20.73
74661;SHT31;63191;39.566;2.654;2022-12-18T10:49:22;46.28;20.74
74661;SHT31;63191;39.566;2.654;2022-12-18T10:51:51;46.03;19.75
74661;SHT31;63191;39.566;2.654;2022-12-18T10:54:50;45.29;20.29
74661;SHT31;63191;39.566;2.654;2022-12-18T10:57:34;44.95;20.27
74661;SHT31;63191;39.566;2.654;2022-12-18T11:00:46;44.66;20.73
74661;SHT31;63191;39.566;2.654;2022-12-18T11:02:55;44.51;20.92
74661;SHT31;63191;39.566;2.654;2022-12-18T11:05:29;44.51;20.76
74661;SHT31;63191;39.566;2.654;2022-12-18T11:07:59;44.05;20.35
74661;SHT31;63191;39.566;2.654;2022-12-18T11:10:33;43.49;21.20
74661;SHT31;63191;39.566;2.654;2022-12-18T11:13:35;43.63;21.72
74661;SHT31;63191;39.566;2.654;2022-12-18T11:15:56;44.13;21.62
74661;SHT31;63191;39.566;2.654;2022-12-18T11:18:31;44.26;20.78
74661;SHT31;63191;39.566;2.654;2022-12-18T11:21:07;43.72;20.63
74661;SHT31;63191;39.566;2.654;2022-12-18T11:23:36;43.18;21.19
74661;SHT31;63191;39.566;2.654;2022-12-18T11:26:16;42.87;21.56
74661;SHT31;63191;39.566;2.654;2022-12-18T11:28:52;42.93;22.07
74661;SHT31;63191;39.566;2.654;2022-12-18T11:31:40;43.45;21.93
74661;SHT31;63191;39.566;2.654;2022-12-18T11:34:26;43.68;21.51
74661;SHT31;63191;39.566;2.654;2022-12-18T11:36:57;43.43;21.03
74661;SHT31;63191;39.566;2.654;2022-12-18T11:39:34;43.05;21.42
74661;SHT31;63191;39.566;2.654;2022-12-18T11:48:21;43.00;22.10
74661;SHT31;63191;39.566;2.654;2022-12-18T11:50:50;42.91;22.04
74661;SHT31;63191;39.566;2.654;2022-12-18T11:53:23;42.95;22.33
74661;SHT31;63191;39.566;2.654;2022-12-18T12:02:33;42.97;22.25
74661;SHT31;63191;39.566;2.654;2022-12-18T12:05:25;43.17;21.67
74661;SHT31;63191;39.566;2.654;2022-12-18T12:11:27;42.13;22.10
74661;SHT31;63191;39.566;2.654;2022-12-18T12:19:39;42.52;21.98
74661;SHT31;63191;39.566;2.654;2022-12-18T12:23:20;42.24;22.26
74661;SHT31;63191;39.566;2.654;2022-12-18T12:34:18;40.01;23.63
74661;SHT31;63191;39.566;2.654;2022-12-18T13:50:11;28.60;38.28
74661;SHT31;63191;39.566;2.654;2022-12-18T13:52:50;27.74;39.80
74661;SHT31;63191;39.566;2.654;2022-12-18T13:55:20;27.21;41.10
74661;SHT31;63191;39.566;2.654;2022-12-18T13:58:02;26.85;42.01
74661;SHT31;63191;39.566;2.654;2022-12-18T14:00:30;26.33;42.98
74661;SHT31;63191;39.566;2.654;2022-12-18T14:02:59;25.63;44.41
74661;SHT31;63191;39.566;2.654;2022-12-18T14:05:26;24.94;45.90
74661;SHT31;63191;39.566;2.654;2022-12-18T14:08:01;24.61;46.89
74661;SHT31;63191;39.566;2.654;2022-12-18T14:16:59;24.14;48.54
74661;SHT31;63191;39.566;2.654;2022-12-18T14:19:26;23.91;49.27
74661;SHT31;63191;39.566;2.654;2022-12-18T14:21:52;23.73;49.94
74661;SHT31;63191;39.566;2.654;2022-12-18T14:38:37;21.43;56.71
74661;SHT31;63191;39.566;2.654;2022-12-18T14:41:06;20.91;58.19
74661;SHT31;63191;39.566;2.654;2022-12-18T14:43:42;20.54;59.58
74661;SHT31;63191;39.566;2.654;2022-12-18T15:11:26;19.77;63.36
74661;SHT31;63191;39.566;2.654;2022-12-18T15:17:03;19.47;64.83
74661;SHT31;63191;39.566;2.654;2022-12-18T15:19:43;19.35;65.36
74661;SHT31;63191;39.566;2.654;2022-12-18T15:22:36;19.14;66.37
74661;SHT31;63191;39.566;2.654;2022-12-18T15:25:03;18.93;67.13
74661;SHT31;63191;39.566;2.654;2022-12-18T15:27:49;18.74;67.82
74661;SHT31;63191;39.566;2.654;2022-12-18T15:30:16;18.60;68.59
74661;SHT31;63191;39.566;2.654;2022-12-18T15:32:47;18.48;69.19
74661;SHT31;63191;39.566;2.654;2022-12-18T15:35:16;18.41;69.55
74661;SHT31;63191;39.566;2.654;2022-12-18T15:37:48;18.34;69.55
74661;SHT31;63191;39.566;2.654;2022-12-18T15:40:17;18.26;69.56
74661;SHT31;63191;39.566;2.654;2022-12-18T15:42:47;18.19;69.70
74661;SHT31;63191;39.566;2.654;2022-12-18T15:45:46;18.14;70.31
74661;SHT31;63191;39.566;2.654;2022-12-18T15:48:17;18.08;70.55
74661;SHT31;63191;39.566;2.654;2022-12-18T15:50:48;18.02;70.68
74661;SHT31;63191;39.566;2.654;2022-12-18T15:53:39;17.97;70.78
74661;SHT31;63191;39.566;2.654;2022-12-18T15:56:08;17.93;70.76
74661;SHT31;63191;39.566;2.654;2022-12-18T15:58:54;17.89;70.82
74661;SHT31;63191;39.566;2.654;2022-12-18T16:01:21;17.85;71.00
74661;SHT31;63191;39.566;2.654;2022-12-18T16:03:56;17.77;71.15
74661;SHT31;63191;39.566;2.654;2022-12-18T16:06:22;17.68;71.54
74661;SHT31;63191;39.566;2.654;2022-12-18T16:08:48;17.64;71.83
74661;SHT31;63191;39.566;2.654;2022-12-18T16:11:36;17.59;71.54
74661;SHT31;63191;39.566;2.654;2022-12-18T16:16:46;17.45;71.05
74661;SHT31;63191;39.566;2.654;2022-12-18T16:19:27;17.40;71.26
74661;SHT31;63191;39.566;2.654;2022-12-18T16:21:54;17.36;71.26
74661;SHT31;63191;39.566;2.654;2022-12-18T16:24:26;17.31;71.36
74661;SHT31;63191;39.566;2.654;2022-12-18T16:27:04;17.27;71.49
74661;SHT31;63191;39.566;2.654;2022-12-18T16:29:30;17.23;71.62
74661;SHT31;63191;39.566;2.654;2022-12-18T16:31:56;17.20;72.17
74661;SHT31;63191;39.566;2.654;2022-12-18T16:34:27;17.15;72.14
74661;SHT31;63191;39.566;2.654;2022-12-18T16:37:03;17.10;72.47
74661;SHT31;63191;39.566;2.654;2022-12-18T16:39:31;17.06;72.87
74661;SHT31;63191;39.566;2.654;2022-12-18T16:41:59;17.02;73.18
74661;SHT31;63191;39.566;2.654;2022-12-18T16:44:28;16.99;73.13
74661;SHT31;63191;39.566;2.654;2022-12-18T16:46:54;16.96;73.34
74661;SHT31;63191;39.566;2.654;2022-12-18T16:49:21;16.92;73.78
74661;SHT31;63191;39.566;2.654;2022-12-18T16:51:46;16.88;74.06
74661;SHT31;63191;39.566;2.654;2022-12-18T16:54:12;16.87;74.18
74661;SHT31;63191;39.566;2.654;2022-12-18T16:56:38;16.86;74.39
74661;SHT31;63191;39.566;2.654;2022-12-18T16:59:04;16.84;74.69
74661;SHT31;63191;39.566;2.654;2022-12-18T17:01:30;16.82;74.78
74661;SHT31;63191;39.566;2.654;2022-12-18T17:04:06;16.80;74.85
74661;SHT31;63191;39.566;2.654;2022-12-18T17:06:34;16.77;74.85
74661;SHT31;63191;39.566;2.654;2022-12-18T17:09:06;16.76;74.98
74661;SHT31;63191;39.566;2.654;2022-12-18T17:11:35;16.73;75.28
74661;SHT31;63191;39.566;2.654;2022-12-18T17:14:05;16.71;75.25
74661;SHT31;63191;39.566;2.654;2022-12-18T17:16:37;16.70;75.30
74661;SHT31;63191;39.566;2.654;2022-12-18T17:19:04;16.67;75.51
74661;SHT31;63191;39.566;2.654;2022-12-18T17:21:29;16.65;75.62
74661;SHT31;63191;39.566;2.654;2022-12-18T17:23:55;16.64;75.61
74661;SHT31;63191;39.566;2.654;2022-12-18T17:26:27;16.63;75.71
74661;SHT31;63191;39.566;2.654;2022-12-18T17:28:54;16.61;75.89
74661;SHT31;63191;39.566;2.654;2022-12-18T17:31:22;16.58;75.92
74661;SHT31;63191;39.566;2.654;2022-12-18T17:33:52;16.56;75.87
74661;SHT31;63191;39.566;2.654;2022-12-18T17:36:18;16.53;75.80
74661;SHT31;63191;39.566;2.654;2022-12-18T17:38:54;16.50;76.03
74661;SHT31;63191;39.566;2.654;2022-12-18T17:41:23;16.48;76.13
74661;SHT31;63191;39.566;2.654;2022-12-18T17:43:50;16.48;76.13
74661;SHT31;63191;39.566;2.654;2022-12-18T17:46:24;16.46;75.95
74661;SHT31;63191;39.566;2.654;2022-12-18T17:48:55;16.44;75.86
74661;SHT31;63191;39.566;2.654;2022-12-18T17:51:23;16.41;75.83
74661;SHT31;63191;39.566;2.654;2022-12-18T17:53:49;16.37;75.80
74661;SHT31;63191;39.566;2.654;2022-12-18T17:56:16;16.31;75.74
74661;SHT31;63191;39.566;2.654;2022-12-18T17:58:44;16.27;75.62
74661;SHT31;63191;39.566;2.654;2022-12-18T18:01:13;16.23;75.51
74661;SHT31;63191;39.566;2.654;2022-12-18T18:03:41;16.19;75.50
74661;SHT31;63191;39.566;2.654;2022-12-18T18:06:07;16.15;75.50
74661;SHT31;63191;39.566;2.654;2022-12-18T18:08:34;16.10;75.51
74661;SHT31;63191;39.566;2.654;2022-12-18T18:11:10;16.05;75.57
74661;SHT31;63191;39.566;2.654;2022-12-18T18:13:58;16.00;75.71
74661;SHT31;63191;39.566;2.654;2022-12-18T18:16:32;15.96;75.81
74661;SHT31;63191;39.566;2.654;2022-12-18T18:19:01;15.95;75.88
74661;SHT31;63191;39.566;2.654;2022-12-18T18:21:33;15.95;75.89
74661;SHT31;63191;39.566;2.654;2022-12-18T18:24:03;15.96;75.90
74661;SHT31;63191;39.566;2.654;2022-12-18T18:26:47;15.96;76.00
74661;SHT31;63191;39.566;2.654;2022-12-18T18:29:17;15.95;75.98
74661;SHT31;63191;39.566;2.654;2022-12-18T18:31:47;15.93;75.93
74661;SHT31;63191;39.566;2.654;2022-12-18T18:34:13;15.89;75.91
74661;SHT31;63191;39.566;2.654;2022-12-18T18:36:42;15.83;75.90
74661;SHT31;63191;39.566;2.654;2022-12-18T18:39:09;15.76;75.92
74661;SHT31;63191;39.566;2.654;2022-12-18T18:41:35;15.68;75.94
74661;SHT31;63191;39.566;2.654;2022-12-18T18:44:01;15.62;76.00
74661;SHT31;63191;39.566;2.654;2022-12-18T18:46:26;15.56;76.01
74661;SHT31;63191;39.566;2.654;2022-12-18T18:48:53;15.51;76.10
74661;SHT31;63191;39.566;2.654;2022-12-18T18:51:20;15.47;76.22
74661;SHT31;63191;39.566;2.654;2022-12-18T18:53:48;15.41;76.32
74661;SHT31;63191;39.566;2.654;2022-12-18T18:56:17;15.35;76.46
74661;SHT31;63191;39.566;2.654;2022-12-18T18:58:53;15.29;76.63
74661;SHT31;63191;39.566;2.654;2022-12-18T19:01:20;15.24;76.79
74661;SHT31;63191;39.566;2.654;2022-12-18T19:03:48;15.20;76.95
74661;SHT31;63191;39.566;2.654;2022-12-18T19:06:16;15.18;77.01
74661;SHT31;63191;39.566;2.654;2022-12-18T19:08:48;15.16;77.01
74661;SHT31;63191;39.566;2.654;2022-12-18T19:11:16;15.15;77.00